Ria Da Coruna — EAGB — position and weather

sailwx.info

Track history (hours):
 
Tides and Currents Weather Stations Pressure Air Temp Water Temp Dewpoint Dewpoint Depression Visibility Wind Speed Wind Dir Waves Ship Positions

Ria Da Coruna

Last reported at 2018-Apr-25 11:56 UTC. Time now 2018-Apr-25 12:46 UTC.
Position N 43°18' W 002°12'.

Length 28 m.

Type: Fishing. MMSI: 224068650.

Date/timePositionNaut miles runAvg speedWind from/ knotsBaromVisibWave heightAir tempDewpointWater temp
2018-Apr-25 11:56N 43°18' W 002°12'0 0.3
2018-Apr-25 11:30N 43°18' W 002°12'0 0.0
2018-Apr-25 11:00N 43°18' W 002°12'1 2.9
2018-Apr-25 10:30N 43°20' W 002°12'510.2
2018-Apr-25 10:00N 43°25' W 002°13'510.3
2018-Apr-25 09:30N 43°30' W 002°13'3 5.5
2018-Apr-25 09:00N 43°33' W 002°13'0 0.2
2018-Apr-25 08:30N 43°33' W 002°13'0 0.8
2018-Apr-25 08:00N 43°32' W 002°14'1 1.6
2018-Apr-25 07:30N 43°32' W 002°15'0 0.3
2018-Apr-25 07:00N 43°32' W 002°15'0 0.3
2018-Apr-25 06:30N 43°32' W 002°15'4 8.6
2018-Apr-25 06:00N 43°34' W 002°20'2 4.8
2018-Apr-25 05:30N 43°35' W 002°23'0 0.0
2018-Apr-25 04:59N 43°35' W 002°23'2 3.4
2018-Apr-25 04:30N 43°36' W 002°25'510.5
2018-Apr-25 04:00N 43°35' W 002°31'2 4.0
2018-Apr-25 03:30N 43°33' W 002°34'2 3.9
2018-Apr-25 03:00N 43°35' W 002°36'3 6.1
2018-Apr-25 02:30N 43°35' W 002°31'3 6.7
2018-Apr-25 02:00N 43°35' W 002°27'0 0.1
2018-Apr-25 01:30N 43°35' W 002°27'0 0.2
2018-Apr-25 01:00N 43°35' W 002°27'0 0.9
2018-Apr-25 00:30N 43°35' W 002°27'4 7.3
2018-Apr-25 00:00N 43°35' W 002°32'2 4.1
2018-Apr-24 23:30N 43°34' W 002°35'510.1
2018-Apr-24 23:00N 43°36' W 002°41'1 2.2
2018-Apr-24 22:30N 43°36' W 002°43'0 0.5
2018-Apr-24 22:00N 43°36' W 002°43'0 0.6
2018-Apr-24 21:30N 43°37' W 002°42'0 0.6
2018-Apr-24 21:00N 43°37' W 002°42'3 5.7
2018-Apr-24 20:30N 43°34' W 002°41'5 9.0
2018-Apr-24 20:00N 43°30' W 002°41'5 9.1
2018-Apr-24 19:30N 43°25' W 002°43'0 0.8
2018-Apr-24 19:00N 43°25' W 002°43'0 0.0
2018-Apr-24 18:30N 43°25' W 002°43'4 8.1
2018-Apr-24 18:00N 43°29' W 002°41'510.4
2018-Apr-24 17:30N 43°33' W 002°38'2 3.9
2018-Apr-24 17:00N 43°35' W 002°37'0 0.1
2018-Apr-24 16:30N 43°35' W 002°37'1 1.6
2018-Apr-24 16:00N 43°35' W 002°35'4 8.1
2018-Apr-24 15:30N 43°31' W 002°37'1 1.5
2018-Apr-24 14:59N 43°31' W 002°37'0 0.3
2018-Apr-24 14:30N 43°31' W 002°37'4 7.8
2018-Apr-24 14:00N 43°34' W 002°40'5 9.0
2018-Apr-24 13:30N 43°35' W 002°46'1 2.3
2018-Apr-24 13:00N 43°34' W 002°48'0 0.2
2018-Apr-24 12:30N 43°34' W 002°48'1 3.0
2018-Apr-24 12:00N 43°33' W 002°47'5 9.4
2018-Apr-24 11:30N 43°36' W 002°42'4 7.8
2018-Apr-24 11:00N 43°37' W 002°48'510.4
2018-Apr-24 10:30N 43°38' W 002°55'510.8
2018-Apr-24 10:00N 43°37' W 003°02'510.8
2018-Apr-24 09:30N 43°36' W 003°09'610.7
2018-Apr-24 08:58N 43°35' W 003°17'510.5
2018-Apr-24 08:30N 43°36' W 003°24'510.4
2018-Apr-24 08:00N 43°36' W 003°31'610.7
2018-Apr-24 07:29N 43°37' W 003°39'6210.3
2018-Apr-24 01:28N 43°39' W 005°04'710.2
2018-Apr-24 00:48N 43°40' W 005°14'310.0
2018-Apr-24 00:30N 43°40' W 005°18'510.1
2018-Apr-23 23:59N 43°40' W 005°25'510.3
2018-Apr-23 23:29N 43°40' W 005°32'16 3.4
2018-Apr-23 18:42N 43°40' W 005°55'3 9.4
2018-Apr-23 18:22N 43°41' W 005°51'410.6
2018-Apr-23 17:58N 43°40' W 005°45'510.6
2018-Apr-23 17:27N 43°39' W 005°37'79 5.3
2018-Apr-23 02:28N 43°33' W 003°48'4 9.1
2018-Apr-23 02:00N 43°32' W 003°43'5 9.3
2018-Apr-23 01:30N 43°32' W 003°36'5 9.2
2018-Apr-23 01:00N 43°32' W 003°30'5 9.1
2018-Apr-23 00:30N 43°32' W 003°24'4 8.9
2018-Apr-23 00:00N 43°32' W 003°18'4 8.7
2018-Apr-22 23:30N 43°31' W 003°12'4 8.6
2018-Apr-22 23:00N 43°31' W 003°06'4 8.7
2018-Apr-22 22:30N 43°30' W 002°60'5 9.3
2018-Apr-22 22:00N 43°30' W 002°53'5 9.3
2018-Apr-22 21:30N 43°30' W 002°47'4 8.9
2018-Apr-22 21:00N 43°28' W 002°41'4 8.7
2018-Apr-22 20:30N 43°27' W 002°35'5 9.0
2018-Apr-22 20:00N 43°25' W 002°30'4 8.9
2018-Apr-22 19:30N 43°23' W 002°24'4 8.5
2018-Apr-22 19:00N 43°22' W 002°19'4 8.7
2018-Apr-22 18:30N 43°20' W 002°13'2 3.2
2018-Apr-22 18:00N 43°18' W 002°12'0 0.0
2018-Apr-21 09:28N 43°18' W 002°12'0 0.0
2018-Apr-21 09:00N 43°18' W 002°12'1 0.1
2018-Apr-20 14:26N 43°20' W 002°11'510.8
2018-Apr-20 14:00N 43°24' W 002°10'15 0.8
2018-Apr-19 17:34N 43°39' W 002°08'110.8
2018-Apr-19 17:29N 43°39' W 002°09'611.0
2018-Apr-19 16:59N 43°33' W 002°10'1210.6
2018-Apr-19 15:52N 43°21' W 002°11'53 7.1
2018-Apr-19 08:25N 44°13' W 001°54'711.1
2018-Apr-19 07:46N 44°19' W 001°51'311.2
2018-Apr-19 07:30N 44°22' W 001°51'610.9
2018-Apr-19 06:59N 44°28' W 001°49'510.9
2018-Apr-19 06:30N 44°33' W 001°47'510.6
2018-Apr-19 06:00N 44°38' W 001°45'0 0.7
2018-Apr-19 05:30N 44°38' W 001°45'0 0.4
2018-Apr-19 05:00N 44°38' W 001°45'0 0.2
2018-Apr-19 04:31N 44°38' W 001°45'0 0.3
2018-Apr-19 04:00N 44°38' W 001°45'2 4.2
2018-Apr-19 03:30N 44°40' W 001°44'2 4.4
2018-Apr-19 03:00N 44°39' W 001°47'0 0.3
2018-Apr-19 02:30N 44°39' W 001°47'0 0.6
2018-Apr-19 02:00N 44°39' W 001°47'3 6.2
2018-Apr-19 01:30N 44°37' W 001°51'5 0.3
2018-Apr-18 09:13N 44°33' W 001°56'0 0.2
2018-Apr-18 09:00N 44°33' W 001°56'0 0.1
2018-Apr-18 08:30N 44°33' W 001°56'1 1.3
2018-Apr-18 07:59N 44°34' W 001°56'1 0.5
2018-Apr-18 06:32N 44°34' W 001°55'010.0
2018-Apr-18 06:30N 44°33' W 001°55'5 9.8
2018-Apr-18 06:00N 44°30' W 001°51'1 1.3
2018-Apr-18 05:30N 44°29' W 001°50'0 0.2
2018-Apr-18 05:00N 44°29' W 001°50'0 0.5
2018-Apr-18 04:31N 44°29' W 001°50'2 4.3
2018-Apr-18 03:59N 44°29' W 001°53'0 0.4
2018-Apr-18 03:30N 44°29' W 001°53'0 0.2
2018-Apr-18 03:00N 44°29' W 001°53'0 0.1
2018-Apr-18 02:30N 44°28' W 001°53'3 5.3
2018-Apr-18 01:55N 44°26' W 001°51'2 5.4
2018-Apr-18 01:30N 44°28' W 001°50'0 0.7
2018-Apr-18 01:00N 44°28' W 001°50'1 2.0
2018-Apr-18 00:30N 44°29' W 001°51'2 3.5
2018-Apr-18 00:00N 44°30' W 001°51'4 8.1
2018-Apr-17 23:30N 44°26' W 001°52'11 0.8
2018-Apr-17 08:23N 44°15' W 001°54'5 1.0
2018-Apr-17 02:50N 44°19' W 001°49'21 7.3
2018-Apr-16 23:59N 43°58' W 001°51'4 6.9
2018-Apr-16 23:28N 43°55' W 001°53'4 6.8
2018-Apr-16 22:57N 43°51' W 001°54'3 5.7
2018-Apr-16 22:29N 43°48' W 001°53'0 0.2
2018-Apr-16 22:00N 43°48' W 001°53'0 0.2
2018-Apr-16 21:30N 43°48' W 001°53'  
Track history (hours):
 
Tides and Currents Weather Stations Pressure Air Temp Water Temp Dewpoint Dewpoint Depression Visibility Wind Speed Wind Dir Waves Ship Positions

Ria Da Coruna

Last reported at 2018-Apr-25 11:56 UTC. Time now 2018-Apr-25 12:46 UTC.
Position N 43°18' W 002°12'.

Length 28 m.

Type: Fishing. MMSI: 224068650.

Date/timePositionNaut miles runAvg speedWind from/ knotsBaromVisibWave heightAir tempDewpointWater temp
2018-Apr-25 11:56N 43°18' W 002°12'0 0.3
2018-Apr-25 11:30N 43°18' W 002°12'0 0.0
2018-Apr-25 11:00N 43°18' W 002°12'1 2.9
2018-Apr-25 10:30N 43°20' W 002°12'510.2
2018-Apr-25 10:00N 43°25' W 002°13'510.3
2018-Apr-25 09:30N 43°30' W 002°13'3 5.5
2018-Apr-25 09:00N 43°33' W 002°13'0 0.2
2018-Apr-25 08:30N 43°33' W 002°13'0 0.8
2018-Apr-25 08:00N 43°32' W 002°14'1 1.6
2018-Apr-25 07:30N 43°32' W 002°15'0 0.3
2018-Apr-25 07:00N 43°32' W 002°15'0 0.3
2018-Apr-25 06:30N 43°32' W 002°15'4 8.6
2018-Apr-25 06:00N 43°34' W 002°20'2 4.8
2018-Apr-25 05:30N 43°35' W 002°23'0 0.0
2018-Apr-25 04:59N 43°35' W 002°23'2 3.4
2018-Apr-25 04:30N 43°36' W 002°25'510.5
2018-Apr-25 04:00N 43°35' W 002°31'2 4.0
2018-Apr-25 03:30N 43°33' W 002°34'2 3.9
2018-Apr-25 03:00N 43°35' W 002°36'3 6.1
2018-Apr-25 02:30N 43°35' W 002°31'3 6.7
2018-Apr-25 02:00N 43°35' W 002°27'0 0.1
2018-Apr-25 01:30N 43°35' W 002°27'0 0.2
2018-Apr-25 01:00N 43°35' W 002°27'0 0.9
2018-Apr-25 00:30N 43°35' W 002°27'4 7.3
2018-Apr-25 00:00N 43°35' W 002°32'2 4.1
2018-Apr-24 23:30N 43°34' W 002°35'510.1
2018-Apr-24 23:00N 43°36' W 002°41'1 2.2
2018-Apr-24 22:30N 43°36' W 002°43'0 0.5
2018-Apr-24 22:00N 43°36' W 002°43'0 0.6
2018-Apr-24 21:30N 43°37' W 002°42'0 0.6
2018-Apr-24 21:00N 43°37' W 002°42'3 5.7
2018-Apr-24 20:30N 43°34' W 002°41'5 9.0
2018-Apr-24 20:00N 43°30' W 002°41'5 9.1
2018-Apr-24 19:30N 43°25' W 002°43'0 0.8
2018-Apr-24 19:00N 43°25' W 002°43'0 0.0
2018-Apr-24 18:30N 43°25' W 002°43'4 8.1
2018-Apr-24 18:00N 43°29' W 002°41'510.4
2018-Apr-24 17:30N 43°33' W 002°38'2 3.9
2018-Apr-24 17:00N 43°35' W 002°37'0 0.1
2018-Apr-24 16:30N 43°35' W 002°37'1 1.6
2018-Apr-24 16:00N 43°35' W 002°35'4 8.1
2018-Apr-24 15:30N 43°31' W 002°37'1 1.5
2018-Apr-24 14:59N 43°31' W 002°37'0 0.3
2018-Apr-24 14:30N 43°31' W 002°37'4 7.8
2018-Apr-24 14:00N 43°34' W 002°40'5 9.0
2018-Apr-24 13:30N 43°35' W 002°46'1 2.3
2018-Apr-24 13:00N 43°34' W 002°48'0 0.2
2018-Apr-24 12:30N 43°34' W 002°48'1 3.0
2018-Apr-24 12:00N 43°33' W 002°47'5 9.4
2018-Apr-24 11:30N 43°36' W 002°42'4 7.8
2018-Apr-24 11:00N 43°37' W 002°48'510.4
2018-Apr-24 10:30N 43°38' W 002°55'510.8
2018-Apr-24 10:00N 43°37' W 003°02'510.8
2018-Apr-24 09:30N 43°36' W 003°09'610.7
2018-Apr-24 08:58N 43°35' W 003°17'510.5
2018-Apr-24 08:30N 43°36' W 003°24'510.4
2018-Apr-24 08:00N 43°36' W 003°31'610.7
2018-Apr-24 07:29N 43°37' W 003°39'6210.3
2018-Apr-24 01:28N 43°39' W 005°04'710.2
2018-Apr-24 00:48N 43°40' W 005°14'310.0
2018-Apr-24 00:30N 43°40' W 005°18'510.1
2018-Apr-23 23:59N 43°40' W 005°25'510.3
2018-Apr-23 23:29N 43°40' W 005°32'16 3.4
2018-Apr-23 18:42N 43°40' W 005°55'3 9.4
2018-Apr-23 18:22N 43°41' W 005°51'410.6
2018-Apr-23 17:58N 43°40' W 005°45'510.6
2018-Apr-23 17:27N 43°39' W 005°37'79 5.3
2018-Apr-23 02:28N 43°33' W 003°48'4 9.1
2018-Apr-23 02:00N 43°32' W 003°43'5 9.3
2018-Apr-23 01:30N 43°32' W 003°36'5 9.2
2018-Apr-23 01:00N 43°32' W 003°30'5 9.1
2018-Apr-23 00:30N 43°32' W 003°24'4 8.9
2018-Apr-23 00:00N 43°32' W 003°18'4 8.7
2018-Apr-22 23:30N 43°31' W 003°12'4 8.6
2018-Apr-22 23:00N 43°31' W 003°06'4 8.7
2018-Apr-22 22:30N 43°30' W 002°60'5 9.3
2018-Apr-22 22:00N 43°30' W 002°53'5 9.3
2018-Apr-22 21:30N 43°30' W 002°47'4 8.9
2018-Apr-22 21:00N 43°28' W 002°41'4 8.7
2018-Apr-22 20:30N 43°27' W 002°35'5 9.0
2018-Apr-22 20:00N 43°25' W 002°30'4 8.9
2018-Apr-22 19:30N 43°23' W 002°24'4 8.5
2018-Apr-22 19:00N 43°22' W 002°19'4 8.7
2018-Apr-22 18:30N 43°20' W 002°13'2 3.2
2018-Apr-22 18:00N 43°18' W 002°12'0 0.0
2018-Apr-21 09:28N 43°18' W 002°12'0 0.0
2018-Apr-21 09:00N 43°18' W 002°12'1 0.1
2018-Apr-20 14:26N 43°20' W 002°11'510.8
2018-Apr-20 14:00N 43°24' W 002°10'15 0.8
2018-Apr-19 17:34N 43°39' W 002°08'110.8
2018-Apr-19 17:29N 43°39' W 002°09'611.0
2018-Apr-19 16:59N 43°33' W 002°10'1210.6
2018-Apr-19 15:52N 43°21' W 002°11'53 7.1
2018-Apr-19 08:25N 44°13' W 001°54'711.1
2018-Apr-19 07:46N 44°19' W 001°51'311.2
2018-Apr-19 07:30N 44°22' W 001°51'610.9
2018-Apr-19 06:59N 44°28' W 001°49'510.9
2018-Apr-19 06:30N 44°33' W 001°47'510.6
2018-Apr-19 06:00N 44°38' W 001°45'0 0.7
2018-Apr-19 05:30N 44°38' W 001°45'0 0.4
2018-Apr-19 05:00N 44°38' W 001°45'0 0.2
2018-Apr-19 04:31N 44°38' W 001°45'0 0.3
2018-Apr-19 04:00N 44°38' W 001°45'2 4.2
2018-Apr-19 03:30N 44°40' W 001°44'2 4.4
2018-Apr-19 03:00N 44°39' W 001°47'0 0.3
2018-Apr-19 02:30N 44°39' W 001°47'0 0.6
2018-Apr-19 02:00N 44°39' W 001°47'3 6.2
2018-Apr-19 01:30N 44°37' W 001°51'5 0.3
2018-Apr-18 09:13N 44°33' W 001°56'0 0.2
2018-Apr-18 09:00N 44°33' W 001°56'0 0.1
2018-Apr-18 08:30N 44°33' W 001°56'1 1.3
2018-Apr-18 07:59N 44°34' W 001°56'1 0.5
2018-Apr-18 06:32N 44°34' W 001°55'010.0
2018-Apr-18 06:30N 44°33' W 001°55'5 9.8
2018-Apr-18 06:00N 44°30' W 001°51'1 1.3
2018-Apr-18 05:30N 44°29' W 001°50'0 0.2
2018-Apr-18 05:00N 44°29' W 001°50'0 0.5
2018-Apr-18 04:31N 44°29' W 001°50'2 4.3
2018-Apr-18 03:59N 44°29' W 001°53'0 0.4
2018-Apr-18 03:30N 44°29' W 001°53'0 0.2
2018-Apr-18 03:00N 44°29' W 001°53'0 0.1
2018-Apr-18 02:30N 44°28' W 001°53'3 5.3
2018-Apr-18 01:55N 44°26' W 001°51'2 5.4
2018-Apr-18 01:30N 44°28' W 001°50'0 0.7
2018-Apr-18 01:00N 44°28' W 001°50'1 2.0
2018-Apr-18 00:30N 44°29' W 001°51'2 3.5
2018-Apr-18 00:00N 44°30' W 001°51'4 8.1
2018-Apr-17 23:30N 44°26' W 001°52'11 0.8
2018-Apr-17 08:23N 44°15' W 001°54'5 1.0
2018-Apr-17 02:50N 44°19' W 001°49'21 7.3
2018-Apr-16 23:59N 43°58' W 001°51'4 6.9
2018-Apr-16 23:28N 43°55' W 001°53'4 6.8
2018-Apr-16 22:57N 43°51' W 001°54'3 5.7
2018-Apr-16 22:29N 43°48' W 001°53'0 0.2
2018-Apr-16 22:00N 43°48' W 001°53'0 0.2
2018-Apr-16 21:30N 43°48' W 001°53'  

Dump ship's entire track history